Gulf - Magdalen - southeastern half: Past 24 Hour Conditions

 

Burgeo

07:30 PM NDT 29 August 2014
This table is a summary of hourly weather conditions for the past 24 hours.
Date / Time
(NDT)
Wind(knots) Conditions Visibility(km) Pressure(kPa) Air tempC) Relative humidity(%) Dew pointC)
29 August 2014
19:30 NNE 7 N/A N/A 101.5 14 53 5
18:30 NNE 10 gust 20 N/A N/A 101.4 15 49 5
17:30 NNE 9 gust 18 N/A N/A 101.3 16 48 5
16:30 NE 12 gust 20 N/A N/A 101.3 16 47 4
15:30 NE 16 gust 24 N/A N/A 101.2 15 51 5
14:30 NNE 16 gust 26 N/A N/A 101.2 14 55 5
13:30 NE 15 gust 23 N/A N/A 101.1 13 61 6
12:30 NE 18 N/A N/A 101.1 11 69 6
11:30 NE 13 gust 26 N/A N/A 101.0 11 75 7
10:30 NE 17 gust 32 N/A N/A 100.8 11 77 7
9:30 NE 26 gust 38 N/A N/A 100.6 11 77 7
8:30 NE 14 gust 32 N/A N/A 100.5 10 81 7
7:30 NE 27 gust 40 N/A N/A 100.5 10 80 7
6:30 ENE 28 gust 39 N/A N/A 100.4 11 83 8
5:30 NE 25 gust 37 N/A N/A 100.3 11 79 8
4:30 ENE 27 gust 35 N/A N/A 100.3 12 77 8
3:30 NE 22 gust 38 N/A N/A 100.3 12 77 8
2:30 ENE 32 gust 42 N/A N/A 100.3 12 77 8
1:30 ENE 25 gust 33 N/A N/A 100.4 12 77 8
0:30 ENE 22 gust 31 N/A N/A 100.4 12 79 9
28 August 2014
23:30 ENE 26 gust 32 N/A N/A 100.4 13 80 9
22:30 ENE 23 gust 34 N/A N/A 100.5 13 80 10
21:30 ENE 21 gust 26 N/A N/A 100.5 13 82 10
20:30 ENE 21 gust 27 N/A N/A 100.5 14 84 11
19:30 ENE 19 gust 26 N/A N/A 100.5 14 86 11
 
Map of Atlantic - Newfoundland marine weather areas Southwestern Grand Banks - 44138 Banquereau - 44139 Tail of the Bank - 44140 Nickerson Bank - 44251 Northeast Burgeo Bank - 44255 Blanc-Sablon Airport Cap Whittle Chevery Natashquan Airport Heath Point Miscou Island Grand Étang Ingonish Beach North Mountain St.Paul Island J.A. Douglas McCurdy Sydney Airport Charlottetown Airport East Point North Cape Argentia Bonavista Burgeo Cape Race Corner Brook Daniel's Harbour Englee Ferolle Point La Scie Port aux Basques Rocky Harbour Sagona Island St. Anthony Airport St. John's Int'l Airport St. Lawrence Stephenville Airport Twillingate Winterland Wreckhouse Cartwright Airport Mary's Harbour Grates Cove Pool's Island Marticot Island Long Pond Îles de la Madeleine Airport
Legend: buoyBuoy land stationLand Station